»·PEaware :: N2442P KMSO-KSFF

N2442P :: KMSO-KSFF

FLIGHT INFORMATION

Flight Status: Arrived
Operator: Privately registered:
United States
More flights under this callsign
Pilot: Ken Q. (14290)
Aircraft: MOONEY M-20K/M ENCORE BRAVO
(M20T)
More flights by this aircraft type
Origin: KMSO Missoula Intl
United States
Destination: KSFF Felts
United States
More flights between these airports :: More routes between these airports
Route: KMSO MLP KSFF
File this flight plan on PilotEdge
Remarks: X
Altitude:
(Current/Filed)
8,500ft
Speed:
(Current/Filed)
165kts
Departed: 03-Nov-19 01:13 PM
Arrived: 03-Nov-19 02:16 PM
Distance/Time
Traveled:
1nm/1:03
Distance/Time
To Go:
Arrived

Flight Plot

Page will automatically refresh every two minutes.

Flight plan parsing failed; only flown route is shown


Map Options




Map Legend


Flown Route
Filed Route
Departure Airport
Arrival Airport
Navaid (VOR, NDB)
Fix

Horizontal Profiles

Position Reports

Time Latitude Longitude Heading Altitude Ground
Speed
03-Nov-19 12:39 46.915053 -114.077208 178 3208ft 0kts
03-Nov-19 12:40 46.915053 -114.077208 178 3208ft 0kts
03-Nov-19 12:41 46.915053 -114.077208 178 3208ft 0kts
03-Nov-19 12:42 46.915053 -114.077208 178 3208ft 0kts
03-Nov-19 12:43 46.915053 -114.077208 178 3208ft 0kts
03-Nov-19 12:44 46.915053 -114.077208 178 3208ft 0kts
03-Nov-19 12:45 46.915053 -114.077208 178 3208ft 0kts
03-Nov-19 12:46 46.915053 -114.077208 178 3208ft 0kts
03-Nov-19 12:47 46.915053 -114.077208 178 3208ft 0kts
03-Nov-19 12:48 46.915053 -114.077208 178 3208ft 0kts
03-Nov-19 12:49 46.915053 -114.077208 178 3208ft 0kts
03-Nov-19 12:50 46.915053 -114.077208 178 3208ft 0kts
03-Nov-19 12:51 46.915053 -114.077208 178 3208ft 0kts
03-Nov-19 12:52 46.915053 -114.077208 178 3208ft 0kts
03-Nov-19 12:53 46.915052 -114.077208 178 3208ft 0kts
03-Nov-19 12:54 46.915052 -114.077208 178 3208ft 0kts
03-Nov-19 12:55 46.915052 -114.077208 178 3208ft 0kts
03-Nov-19 12:56 46.915052 -114.077208 178 3208ft 0kts
03-Nov-19 12:57 46.915051 -114.077208 178 3208ft 0kts
03-Nov-19 12:58 46.915051 -114.077208 178 3208ft 0kts
03-Nov-19 12:59 46.915236 -114.077914 270 3208ft 10kts
03-Nov-19 13:00 46.916519 -114.078403 4 3208ft 4kts
03-Nov-19 13:01 46.916118 -114.078155 225 3208ft 4kts
03-Nov-19 13:02 46.915504 -114.078427 187 3208ft 0kts
03-Nov-19 13:03 46.915366 -114.081066 307 3208ft 7kts
03-Nov-19 13:04 46.916509 -114.083050 308 3208ft 8kts
03-Nov-19 13:05 46.917075 -114.083944 329 3208ft 10kts
03-Nov-19 13:06 46.914978 -114.082164 220 3208ft 14kts
03-Nov-19 13:07 46.912208 -114.081257 130 3208ft 16kts
03-Nov-19 13:08 46.909325 -114.077224 179 3208ft 7kts
03-Nov-19 13:09 46.908925 -114.077214 179 3208ft 0kts
03-Nov-19 13:10 46.908920 -114.077214 178 3208ft 0kts
03-Nov-19 13:11 46.908561 -114.077244 193 3208ft 11kts
03-Nov-19 13:13 46.911219 -114.083278 310 3208ft 79kts
03-Nov-19 13:14 46.927850 -114.115988 306 4018ft 113kts
03-Nov-19 13:15 46.946677 -114.156040 305 4951ft 123kts
03-Nov-19 13:16 46.961505 -114.188478 304 5661ft 125kts
03-Nov-19 13:17 46.979860 -114.229480 303 6529ft 128kts
03-Nov-19 13:18 46.999125 -114.273516 302 7431ft 128kts
03-Nov-19 13:19 47.014623 -114.319888 292 8309ft 127kts
03-Nov-19 13:20 47.030135 -114.373936 292 8502ft 161kts
03-Nov-19 13:21 47.048210 -114.437909 292 8496ft 174kts
03-Nov-19 13:22 47.067077 -114.504283 292 8496ft 177kts
03-Nov-19 13:23 47.087842 -114.570283 295 8499ft 177kts
03-Nov-19 13:24 47.109633 -114.634921 296 8499ft 176kts
03-Nov-19 13:25 47.131910 -114.699109 296 8500ft 176kts
03-Nov-19 13:26 47.154218 -114.763621 296 8502ft 176kts
03-Nov-19 13:27 47.176517 -114.827362 296 8503ft 175kts
03-Nov-19 13:28 47.198909 -114.891340 296 8504ft 175kts
03-Nov-19 13:29 47.221180 -114.954706 296 8504ft 174kts
03-Nov-19 13:30 47.243453 -115.018254 295 8504ft 174kts
03-Nov-19 13:31 47.260019 -115.084880 286 8505ft 172kts
03-Nov-19 13:32 47.278621 -115.150474 297 8413ft 177kts
03-Nov-19 13:32 47.300269 -115.202250 300 8308ft 177kts
03-Nov-19 13:34 47.330057 -115.271862 300 8411ft 169kts
03-Nov-19 13:34 47.350620 -115.320203 299 8503ft 167kts
03-Nov-19 13:35 47.373618 -115.380400 297 8503ft 169kts
03-Nov-19 13:37 47.400482 -115.451190 297 8498ft 169kts
03-Nov-19 13:37 47.419603 -115.501500 297 8500ft 168kts
03-Nov-19 13:38 47.440728 -115.563345 292 8503ft 167kts
03-Nov-19 13:39 47.456683 -115.627813 285 8503ft 166kts
03-Nov-19 13:40 47.468206 -115.694074 283 8499ft 166kts
03-Nov-19 13:41 47.479504 -115.759838 283 8500ft 165kts
03-Nov-19 13:42 47.488651 -115.826327 279 8500ft 164kts
03-Nov-19 13:43 47.496310 -115.893408 279 8425ft 167kts
03-Nov-19 13:44 47.504155 -115.960886 279 8425ft 165kts
03-Nov-19 13:45 47.511918 -116.027789 279 8426ft 164kts
03-Nov-19 13:46 47.519516 -116.094170 279 8435ft 163kts
03-Nov-19 13:47 47.527136 -116.160718 279 8440ft 163kts
03-Nov-19 13:48 47.534694 -116.226826 279 8447ft 163kts
03-Nov-19 13:49 47.543778 -116.292858 281 8453ft 163kts
03-Nov-19 13:50 47.553073 -116.358957 281 8461ft 164kts
03-Nov-19 13:51 47.562411 -116.425281 281 8466ft 164kts
03-Nov-19 13:52 47.571748 -116.491558 281 8471ft 164kts
03-Nov-19 13:53 47.581032 -116.557697 281 8432ft 162kts
03-Nov-19 13:54 47.590427 -116.624502 281 7935ft 167kts
03-Nov-19 13:55 47.600030 -116.692614 281 7437ft 170kts
03-Nov-19 13:56 47.609806 -116.761319 281 6938ft 171kts
03-Nov-19 13:57 47.619655 -116.830254 281 6499ft 167kts
03-Nov-19 13:58 47.629028 -116.895346 281 6163ft 162kts
03-Nov-19 13:59 47.638629 -116.955581 284 5708ft 164kts
03-Nov-19 14:00 47.648394 -117.018505 277 5192ft 144kts
03-Nov-19 14:01 47.653989 -117.073493 277 4662ft 117kts
03-Nov-19 14:02 47.657882 -117.115064 277 4103ft 91kts
03-Nov-19 14:03 47.660931 -117.152623 276 3600ft 92kts
03-Nov-19 14:04 47.663858 -117.191115 276 3111ft 95kts
03-Nov-19 14:05 47.666363 -117.230843 272 2874ft 95kts
03-Nov-19 14:06 47.669142 -117.269046 245 2875ft 95kts
03-Nov-19 14:07 47.661678 -117.307260 282 2883ft 103kts
03-Nov-19 14:08 47.678191 -117.342319 329 2881ft 110kts
03-Nov-19 14:09 47.706371 -117.341973 34 2876ft 108kts
03-Nov-19 14:10 47.726321 -117.309956 49 2871ft 103kts
03-Nov-19 14:11 47.737782 -117.275625 133 2881ft 97kts
03-Nov-19 14:12 47.716841 -117.259614 215 2749ft 82kts
03-Nov-19 14:13 47.701715 -117.285058 235 2451ft 83kts
03-Nov-19 14:14 47.687990 -117.313254 233 2052ft 84kts
03-Nov-19 14:15 47.681068 -117.326068 144 1956ft 7kts
03-Nov-19 14:16 47.680107 -117.324888 88 1956ft 8kts
03-Nov-19 14:17 47.680563 -117.322853 130 1956ft 0kts
03-Nov-19 14:18 47.680881 -117.320590 124 1956ft 4kts
03-Nov-19 14:19 47.680725 -117.320275 128 1956ft 0kts
03-Nov-19 14:20 47.680725 -117.320275 128 1956ft 0kts
03-Nov-19 14:21 46.915053 -114.077208 178 3208ft 0kts
03-Nov-19 14:22 46.915053 -114.077208 178 3208ft 0kts

Navigation Log

Ident Type
Flight plan parsing failed, navigation log unavailable